Time;durP1;ratioP1;P1;durP2;ratioP2;P2;SDS_P1;SDS_P2;PMS_P1;PMS_P2;Temp;Humidity;BMP_temperature;BMP_pressure;BME280_temperature;BME280_humidity;BME280_pressure;Samples;Min_cycle;Max_cycle;Signal;HPM_P1;HPM_P2
2021/03/22 00:00:37;;;;;;;28.30;17.15;;;;;;;1.38;100.00;100419.19;5048748;28;20028;-71
2021/03/22 00:03:03;;;;;;;19.40;15.00;;;;;;;1.28;100.00;100415.03;5047071;28;20037;-71
2021/03/22 00:05:29;;;;;;;23.00;15.23;;;;;;;1.62;100.00;100414.28;5049922;28;20363;-71
2021/03/22 00:07:55;;;;;;;18.65;13.65;;;;;;;1.44;100.00;100403.84;5051984;28;20033;-71
2021/03/22 00:10:24;;;;;;;23.75;14.30;;;;;;;1.40;100.00;100408.59;5050362;28;20536;-71
2021/03/22 00:12:50;;;;;;;28.73;17.58;;;;;;;1.29;100.00;100403.59;5044510;28;20053;-71
2021/03/22 00:15:17;;;;;;;26.00;16.83;;;;;;;1.30;100.00;100420.91;5053675;28;20028;-71
2021/03/22 00:17:42;;;;;;;30.13;16.83;;;;;;;1.33;100.00;100404.91;5068354;28;20025;-71
2021/03/22 00:20:09;;;;;;;26.73;16.17;;;;;;;1.34;100.00;100402.16;5044528;28;20098;-71
2021/03/22 00:22:35;;;;;;;42.13;20.35;;;;;;;1.22;100.00;100399.94;5050127;28;20041;-72
2021/03/22 00:25:01;;;;;;;34.40;17.90;;;;;;;1.20;100.00;100405.31;5040798;28;20025;-71
2021/03/22 00:27:26;;;;;;;22.05;12.88;;;;;;;1.43;100.00;100402.22;5032336;28;20033;-71
2021/03/22 00:29:51;;;;;;;28.15;16.33;;;;;;;1.22;100.00;100395.53;5065953;28;20461;-72
2021/03/22 00:32:17;;;;;;;41.65;18.35;;;;;;;1.21;100.00;100386.06;5048321;28;20083;-71
2021/03/22 00:34:43;;;;;;;30.15;15.82;;;;;;;1.24;100.00;100384.91;5050725;28;20056;-72
2021/03/22 00:37:08;;;;;;;27.83;16.27;;;;;;;1.17;100.00;100381.25;5050938;28;20172;-71
2021/03/22 00:39:33;;;;;;;33.38;15.57;;;;;;;1.21;100.00;100383.44;5056240;28;20024;-72
2021/03/22 00:41:59;;;;;;;32.95;17.48;;;;;;;1.11;100.00;100380.91;5047116;28;20415;-71
2021/03/22 00:44:24;;;;;;;28.42;15.75;;;;;;;1.00;100.00;100365.47;5042452;28;20191;-71
2021/03/22 00:46:50;;;;;;;24.88;14.95;;;;;;;1.04;100.00;100361.56;5045624;28;20037;-72
2021/03/22 00:49:17;;;;;;;37.38;18.10;;;;;;;0.98;100.00;100356.94;5046380;28;20369;-71
2021/03/22 00:51:42;;;;;;;34.72;17.95;;;;;;;0.98;100.00;100350.91;5041548;28;20029;-71
2021/03/22 00:54:08;;;;;;;20.27;12.95;;;;;;;1.32;100.00;100354.38;5042453;28;20040;-71
2021/03/22 00:56:33;;;;;;;34.85;16.75;;;;;;;0.91;100.00;100340.22;5044700;28;20017;-71
2021/03/22 00:58:58;;;;;;;37.40;17.10;;;;;;;0.88;100.00;100330.06;5047075;28;20041;-71
2021/03/22 01:01:24;;;;;;;44.70;20.05;;;;;;;0.77;100.00;100325.06;5047093;28;20033;-71
2021/03/22 01:03:49;;;;;;;36.50;16.13;;;;;;;1.04;100.00;100326.75;5057743;28;20448;-71
2021/03/22 01:06:15;;;;;;;33.83;17.17;;;;;;;0.86;100.00;100324.97;5051366;28;20029;-71
2021/03/22 01:08:41;;;;;;;43.28;19.30;;;;;;;1.01;100.00;100322.63;5058874;28;20044;-72
2021/03/22 01:11:08;;;;;;;51.70;20.13;;;;;;;0.78;100.00;100319.69;5051305;28;20477;-71
2021/03/22 01:13:41;;;;;;;20.77;12.68;;;;;;;0.97;100.00;100310.00;5048833;28;20037;-72
2021/03/22 01:16:07;;;;;;;24.90;12.98;;;;;;;1.63;100.00;100300.72;5042382;28;20044;-72
2021/03/22 01:18:39;;;;;;;24.05;13.93;;;;;;;0.86;100.00;100306.69;5054761;28;20032;-71
2021/03/22 01:21:14;;;;;;;26.67;14.27;;;;;;;0.84;100.00;100290.31;5047393;28;20114;-71
2021/03/22 01:23:39;;;;;;;15.55;12.40;;;;;;;0.99;100.00;100282.72;5046126;28;20045;-72
2021/03/22 01:26:07;;;;;;;20.70;12.77;;;;;;;0.71;100.00;100281.25;5046394;28;20110;-71
2021/03/22 01:28:33;;;;;;;26.15;13.27;;;;;;;0.75;100.00;100282.56;5048231;28;20086;-71
2021/03/22 01:30:59;;;;;;;19.25;13.95;;;;;;;0.81;100.00;100276.72;5046646;28;20033;-71
2021/03/22 01:33:27;;;;;;;18.45;12.38;;;;;;;1.36;100.00;100274.59;5047334;28;20424;-71
2021/03/22 01:35:57;;;;;;;38.53;16.58;;;;;;;1.42;100.00;100257.44;5045832;28;20036;-71
2021/03/22 01:38:22;;;;;;;20.63;12.80;;;;;;;0.80;100.00;100256.78;5046899;28;20021;-72
2021/03/22 01:41:06;;;;;;;25.38;14.70;;;;;;;0.75;100.00;100254.63;5048252;28;20033;-71
2021/03/22 01:44:06;;;;;;;22.25;14.68;;;;;;;0.65;100.00;100253.91;5041840;28;20025;-72
2021/03/22 01:46:32;;;;;;;19.65;12.15;;;;;;;1.68;100.00;100253.94;5072945;28;20032;-71
2021/03/22 01:48:58;;;;;;;20.00;13.45;;;;;;;0.81;100.00;100253.19;5052523;28;20056;-71
2021/03/22 01:51:24;;;;;;;19.83;13.63;;;;;;;0.64;100.00;100242.66;5047748;28;20049;-71
2021/03/22 01:53:49;;;;;;;15.18;11.82;;;;;;;0.58;100.00;100234.59;5053159;28;20061;-71
2021/03/22 01:56:24;;;;;;;19.27;13.60;;;;;;;0.56;100.00;100236.53;5043883;28;20028;-71
2021/03/22 01:58:50;;;;;;;17.33;13.18;;;;;;;0.57;100.00;100225.91;5052874;28;20025;-71
2021/03/22 02:01:17;;;;;;;16.70;12.05;;;;;;;0.60;100.00;100232.63;5048173;28;20040;-72
2021/03/22 02:03:43;;;;;;;17.58;12.02;;;;;;;0.69;100.00;100232.53;5040401;28;20453;-72
2021/03/22 02:06:09;;;;;;;15.38;11.48;;;;;;;0.83;100.00;100235.56;5042428;28;20087;-71
2021/03/22 02:08:38;;;;;;;17.35;12.10;;;;;;;0.81;100.00;100242.75;5049114;28;20045;-72
2021/03/22 02:11:06;;;;;;;14.48;11.35;;;;;;;0.82;100.00;100240.00;5055309;28;20478;-71
2021/03/22 02:13:36;;;;;;;18.38;11.88;;;;;;;0.66;100.00;100238.06;5047095;28;21368;-71
2021/03/22 02:16:19;;;;;;;15.70;12.07;;;;;;;1.00;100.00;100239.09;5058844;28;20036;-71
2021/03/22 02:19:06;;;;;;;14.23;11.75;;;;;;;0.72;100.00;100241.06;5043490;28;20029;-71
2021/03/22 02:21:53;;;;;;;24.30;14.25;;;;;;;0.71;100.00;100235.00;5048636;28;20033;-71
2021/03/22 02:24:45;;;;;;;15.63;11.23;;;;;;;0.76;100.00;100235.38;5066337;28;20112;-71
2021/03/22 02:27:42;;;;;;;16.02;12.02;;;;;;;1.31;100.00;100235.00;5053326;28;20028;-71
2021/03/22 02:30:45;;;;;;;14.68;11.75;;;;;;;1.06;100.00;100215.78;5042495;28;20486;-71
2021/03/22 02:33:44;;;;;;;13.63;11.73;;;;;;;0.73;100.00;100201.69;5047738;28;20017;-71
2021/03/22 02:36:36;;;;;;;13.63;10.77;;;;;;;0.83;100.00;100210.25;5065748;28;20064;-71
2021/03/22 02:39:03;;;;;;;15.18;11.60;;;;;;;0.69;100.00;100202.97;5062561;28;20401;-71
2021/03/22 02:41:38;;;;;;;13.45;10.93;;;;;;;0.63;100.00;100198.34;5060061;28;20043;-71
2021/03/22 02:44:23;;;;;;;14.35;11.05;;;;;;;0.55;100.00;100198.31;5042394;28;20025;-71
2021/03/22 02:46:55;;;;;;;14.70;11.95;;;;;;;0.44;100.00;100194.97;5058681;28;20043;-71
2021/03/22 02:49:21;;;;;;;13.38;10.75;;;;;;;0.35;100.00;100180.22;5053650;28;20466;-71
2021/03/22 02:52:13;;;;;;;13.65;10.32;;;;;;;0.38;100.00;100184.31;5046861;28;20041;-71
2021/03/22 02:54:57;;;;;;;15.43;10.55;;;;;;;0.33;100.00;100189.16;5043361;28;20047;-71
2021/03/22 02:57:50;;;;;;;12.82;9.77;;;;;;;0.31;100.00;100188.50;5035769;28;20482;-71
2021/03/22 03:00:25;;;;;;;14.68;10.70;;;;;;;0.21;100.00;100196.41;5038304;28;20462;-71
2021/03/22 03:02:53;;;;;;;13.73;9.50;;;;;;;0.29;100.00;100200.91;5042682;28;20032;-71
2021/03/22 03:05:22;;;;;;;12.80;10.57;;;;;;;0.14;100.00;100208.44;5051934;28;20529;-71
2021/03/22 03:07:48;;;;;;;13.02;9.63;;;;;;;0.09;100.00;100193.25;5044610;28;20063;-71
2021/03/22 03:10:18;;;;;;;14.10;10.98;;;;;;;0.00;100.00;100194.16;5052111;28;20048;-72
2021/03/22 03:12:44;;;;;;;13.75;11.23;;;;;;;-0.01;100.00;100200.31;5047135;28;20082;-71
2021/03/22 03:15:13;;;;;;;13.60;10.65;;;;;;;-0.09;100.00;100200.25;5044347;28;20021;-71
2021/03/22 03:17:39;;;;;;;11.65;9.68;;;;;;;-0.16;100.00;100199.22;5049792;28;20235;-72
2021/03/22 03:20:11;;;;;;;11.85;9.05;;;;;;;-0.17;100.00;100194.97;5070681;28;20029;-71
2021/03/22 03:22:40;;;;;;;;;;;;;;;-0.20;100.00;100201.31;5055932;28;20032;-71
2021/03/22 03:25:07;;;;;;;10.20;8.35;;;;;;;0.03;100.00;100206.06;5045434;28;19912;-71
2021/03/22 03:27:33;;;;;;;12.50;9.13;;;;;;;-0.24;100.00;100200.78;5051196;28;20026;-71
2021/03/22 03:29:58;;;;;;;8.88;7.82;;;;;;;-0.26;100.00;100205.31;5041671;28;20030;-71
2021/03/22 03:32:24;;;;;;;12.55;8.77;;;;;;;-0.20;100.00;100203.91;5075243;28;20024;-71
2021/03/22 03:34:49;;;;;;;11.05;8.48;;;;;;;-0.27;100.00;100208.09;5042597;28;20523;-72
2021/03/22 03:37:15;;;;;;;14.95;11.02;;;;;;;-0.31;100.00;100211.94;5049452;28;20484;-71
2021/03/22 03:39:41;;;;;;;9.75;8.20;;;;;;;-0.28;100.00;100214.25;5053368;28;20042;-71
2021/03/22 03:42:08;;;;;;;9.10;8.20;;;;;;;-0.30;100.00;100216.22;5050619;28;20032;-71
2021/03/22 03:44:35;;;;;;;9.93;8.55;;;;;;;-0.32;100.00;100205.91;5042248;28;20040;-71
2021/03/22 03:47:01;;;;;;;10.30;8.70;;;;;;;-0.28;100.00;100202.03;5043362;28;20392;-71
2021/03/22 03:49:26;;;;;;;30.98;17.10;;;;;;;-0.22;100.00;100200.63;5043812;28;20028;-71
2021/03/22 03:51:52;;;;;;;36.70;20.17;;;;;;;0.04;100.00;100203.31;5046280;28;20049;-71
2021/03/22 03:54:18;;;;;;;20.23;14.80;;;;;;;-0.26;100.00;100204.50;5039719;28;20150;-72
2021/03/22 03:56:43;;;;;;;12.43;10.70;;;;;;;-0.24;100.00;100208.63;5044835;28;20032;-71
2021/03/22 03:59:08;;;;;;;13.57;10.75;;;;;;;-0.22;100.00;100200.63;5046310;28;20028;-71
2021/03/22 04:01:35;;;;;;;16.92;12.55;;;;;;;-0.31;100.00;100211.94;5039670;28;20482;-72
2021/03/22 04:04:00;;;;;;;26.40;15.15;;;;;;;-0.34;100.00;100207.84;5040209;28;20025;-71
2021/03/22 04:06:28;;;;;;;15.07;10.55;;;;;;;-0.38;100.00;100206.50;5043459;28;20028;-71
2021/03/22 04:08:57;;;;;;;13.57;8.85;;;;;;;-0.35;100.00;100202.78;5042943;28;20033;-71
2021/03/22 04:11:32;;;;;;;12.77;8.52;;;;;;;-0.21;100.00;100206.66;5047988;28;20039;-71
2021/03/22 04:13:58;;;;;;;14.75;10.02;;;;;;;-0.30;100.00;100200.56;5042342;28;20040;-71
2021/03/22 04:16:26;;;;;;;9.63;7.70;;;;;;;0.34;100.00;100198.66;5050933;28;20021;-71
2021/03/22 04:18:51;;;;;;;11.15;9.13;;;;;;;-0.22;100.00;100202.41;5046377;28;20039;-71
2021/03/22 04:21:22;;;;;;;12.20;8.70;;;;;;;-0.30;100.00;100198.75;5039395;28;20024;-71
2021/03/22 04:23:48;;;;;;;16.55;10.30;;;;;;;-0.36;100.00;100203.75;5042100;28;20040;-71
2021/03/22 04:26:15;;;;;;;16.13;11.73;;;;;;;-0.36;100.00;100207.19;5062746;28;20043;-71
2021/03/22 04:28:41;;;;;;;10.75;8.85;;;;;;;-0.14;100.00;100200.72;5053054;28;20033;-72
2021/03/22 04:31:07;;;;;;;9.30;8.23;;;;;;;-0.26;100.00;100197.50;5052658;28;20379;-71
2021/03/22 04:33:33;;;;;;;9.45;8.43;;;;;;;-0.27;100.00;100198.47;5047160;28;20401;-71
2021/03/22 04:36:00;;;;;;;18.73;9.02;;;;;;;-0.24;100.00;100195.56;5041869;28;20037;-71
2021/03/22 04:38:26;;;;;;;9.77;8.77;;;;;;;-0.29;100.00;100200.41;5044787;28;20033;-71
2021/03/22 04:40:51;;;;;;;9.07;8.07;;;;;;;-0.18;100.00;100194.16;5039801;28;20033;-72
2021/03/22 04:43:17;;;;;;;8.07;7.05;;;;;;;-0.26;100.00;100191.44;5048948;28;20331;-71
2021/03/22 04:45:42;;;;;;;8.73;7.40;;;;;;;-0.28;100.00;100191.59;5040952;28;20060;-71
2021/03/22 04:48:10;;;;;;;16.15;10.73;;;;;;;-0.30;100.00;100190.13;5042041;28;20044;-71
2021/03/22 04:50:35;;;;;;;8.52;7.63;;;;;;;0.41;100.00;100191.84;5041387;28;20397;-71
2021/03/22 04:53:01;;;;;;;9.63;8.68;;;;;;;-0.40;100.00;100191.97;5048297;28;20029;-72
2021/03/22 04:55:26;;;;;;;11.45;9.23;;;;;;;0.31;100.00;100193.75;5045264;28;20467;-71
2021/03/22 04:57:53;;;;;;;9.00;8.10;;;;;;;-0.39;100.00;100188.38;5037616;28;20401;-72
2021/03/22 05:00:21;;;;;;;15.15;12.40;;;;;;;-0.41;100.00;100187.72;5045419;28;20532;-71
2021/03/22 05:02:47;;;;;;;9.77;8.80;;;;;;;-0.41;100.00;100187.72;5049560;28;20032;-72
2021/03/22 05:05:12;;;;;;;9.48;8.45;;;;;;;-0.22;100.00;100184.13;5046254;28;20025;-71
2021/03/22 05:07:38;;;;;;;14.40;10.80;;;;;;;-0.50;100.00;100184.19;5046631;28;20128;-71
2021/03/22 05:10:06;;;;;;;16.90;12.57;;;;;;;-0.51;100.00;100178.16;5055827;28;20445;-71
2021/03/22 05:12:31;;;;;;;108.55;38.13;;;;;;;-0.55;100.00;100182.00;5051662;28;20402;-71
2021/03/22 05:14:57;;;;;;;8.48;7.55;;;;;;;-0.58;100.00;100184.91;5044518;28;20029;-72
2021/03/22 05:17:22;;;;;;;8.70;7.80;;;;;;;-0.54;100.00;100178.47;5048424;28;20017;-71
2021/03/22 05:19:48;;;;;;;11.18;10.15;;;;;;;-0.33;100.00;100195.63;5054647;28;20486;-71
2021/03/22 05:22:13;;;;;;;9.68;8.27;;;;;;;-0.62;100.00;100193.19;5050385;28;20037;-71
2021/03/22 05:24:39;;;;;;;8.27;7.57;;;;;;;-0.64;100.00;100195.13;5037482;28;20523;-72
2021/03/22 05:27:05;;;;;;;242.45;76.50;;;;;;;-0.67;100.00;100192.81;5045481;28;20038;-71
2021/03/22 05:29:30;;;;;;;41.97;22.85;;;;;;;-0.60;100.00;100196.50;5052810;28;20036;-71
2021/03/22 05:31:55;;;;;;;47.53;27.20;;;;;;;-0.67;100.00;100196.22;5041484;28;20472;-72
2021/03/22 05:34:21;;;;;;;11.05;9.88;;;;;;;-0.71;100.00;100187.88;5052871;28;20040;-71
2021/03/22 05:36:48;;;;;;;17.88;15.48;;;;;;;-0.67;100.00;100193.63;5048320;28;20036;-71
2021/03/22 05:39:13;;;;;;;15.38;12.85;;;;;;;-0.66;100.00;100181.44;5048663;28;20029;-72
2021/03/22 05:42:22;;;;;;;19.48;16.42;;;;;;;-0.54;100.00;100180.25;5044542;28;20446;-71
2021/03/22 05:45:16;;;;;;;25.70;19.75;;;;;;;-0.49;100.00;100176.22;5026906;28;20490;-71
2021/03/22 05:47:52;;;;;;;15.32;11.48;;;;;;;-0.57;100.00;100176.16;5055520;28;20392;-71
2021/03/22 05:50:22;;;;;;;14.02;12.35;;;;;;;-0.52;100.00;100173.91;5067836;28;20500;-71
2021/03/22 05:53:09;;;;;;;13.50;11.20;;;;;;;-0.57;100.00;100178.75;5047852;28;20128;-71
2021/03/22 05:55:43;;;;;;;27.65;19.88;;;;;;;-0.26;100.00;100175.78;5039205;28;20123;-71
2021/03/22 05:58:30;;;;;;;17.88;16.05;;;;;;;-0.45;100.00;100179.38;5045012;28;20033;-71
2021/03/22 06:01:13;;;;;;;10.88;9.88;;;;;;;-0.10;100.00;100178.53;5040081;28;20040;-71
2021/03/22 06:03:45;;;;;;;19.95;17.95;;;;;;;-0.46;100.00;100177.72;5042145;28;20037;-71
2021/03/22 06:06:32;;;;;;;9.07;8.18;;;;;;;-0.36;100.00;100175.06;5047278;28;20039;-71
2021/03/22 06:09:06;;;;;;;20.45;18.33;;;;;;;-0.44;100.00;100177.56;5055732;28;20037;-73
2021/03/22 06:11:35;;;;;;;10.48;9.60;;;;;;;-0.46;100.00;100173.31;5049774;28;20506;-72
2021/03/22 06:14:26;;;;;;;24.92;22.33;;;;;;;-0.46;100.00;100175.09;5044356;28;20026;-72
2021/03/22 06:17:16;;;;;;;26.55;21.85;;;;;;;-0.40;100.00;100165.88;5054330;28;20032;-73
2021/03/22 06:19:48;;;;;;;19.77;17.67;;;;;;;-0.22;100.00;100171.91;5045025;28;20029;-72
2021/03/22 06:22:22;;;;;;;13.52;10.75;;;;;;;6.01;100.00;100177.63;5058491;28;20029;-72
2021/03/22 06:24:47;;;;;;;22.38;20.35;;;;;;;6.05;100.00;100172.78;5044143;28;20029;-71
2021/03/22 06:27:15;;;;;;;45.97;42.33;;;;;;;6.35;100.00;100168.16;5060259;28;20029;-73
2021/03/22 06:29:40;;;;;;;21.63;20.42;;;;;;;1.89;100.00;100157.41;5040311;28;20358;-76
2021/03/22 06:32:27;;;;;;;18.13;16.92;;;;;;;0.82;100.00;100151.09;5038744;28;20039;-76
2021/03/22 06:34:56;;;;;;;14.98;13.77;;;;;;;0.20;100.00;100163.44;5058781;28;20037;-73
2021/03/22 06:37:26;;;;;;;15.18;13.90;;;;;;;0.06;100.00;100154.38;4345381;28;10000783;-73
2021/03/22 06:40:16;;;;;;;15.02;13.82;;;;;;;0.14;100.00;100148.38;5037737;28;20040;-74
2021/03/22 06:42:43;;;;;;;21.02;19.02;;;;;;;-0.12;100.00;100153.56;5038653;28;20029;-73
2021/03/22 06:45:33;;;;;;;22.85;18.15;;;;;;;-0.06;100.00;100153.78;5034408;28;20036;-73
2021/03/22 06:48:32;;;;;;;21.58;16.55;;;;;;;-0.02;100.00;100162.94;5032681;28;20072;-74
2021/03/22 06:51:04;;;;;;;14.13;12.77;;;;;;;-0.21;100.00;100152.69;5057361;28;20041;-74
2021/03/22 06:53:51;;;;;;;19.92;17.58;;;;;;;-0.13;100.00;100157.97;5042727;28;20159;-73
2021/03/22 06:56:29;;;;;;;18.30;16.50;;;;;;;-0.23;100.00;100154.63;5040596;28;20028;-73
2021/03/22 06:59:13;;;;;;;17.45;15.68;;;;;;;-0.19;100.00;100155.13;5036109;28;20111;-73
2021/03/22 07:01:41;;;;;;;14.80;13.25;;;;;;;-0.08;100.00;100155.72;5034095;28;20600;-73
2021/03/22 07:04:30;;;;;;;17.30;15.55;;;;;;;-0.09;100.00;100158.47;5045325;28;20040;-73
2021/03/22 07:07:09;;;;;;;22.20;20.05;;;;;;;-0.13;100.00;100157.97;5046306;28;20024;-73
2021/03/22 07:09:37;;;;;;;17.30;15.52;;;;;;;-0.22;100.00;100147.59;5057526;28;20030;-73
2021/03/22 07:12:04;;;;;;;24.77;22.17;;;;;;;0.05;100.00;100152.72;5042413;28;20077;-73
2021/03/22 07:14:31;;;;;;;14.13;12.93;;;;;;;-0.11;100.00;100150.00;5034161;28;20065;-73
2021/03/22 07:17:14;;;;;;;22.13;19.92;;;;;;;-0.20;100.00;100159.53;5035875;28;20036;-73
2021/03/22 07:19:39;;;;;;;18.38;15.90;;;;;;;-0.19;100.00;100160.34;5032294;28;20444;-74
2021/03/22 07:22:19;;;;;;;22.70;19.65;;;;;;;-0.08;100.00;100157.53;5035726;28;20033;-73
2021/03/22 07:25:17;;;;;;;25.02;22.35;;;;;;;-0.13;100.00;100162.38;5035624;28;20039;-73
2021/03/22 07:27:50;;;;;;;34.65;22.10;;;;;;;-0.29;100.00;100160.44;5031724;28;20045;-73
2021/03/22 07:30:50;;;;;;;35.80;28.23;;;;;;;-0.26;100.00;100165.34;5043601;28;20098;-73
2021/03/22 07:33:46;;;;;;;33.72;30.05;;;;;;;-0.11;100.00;100169.06;5055146;28;20043;-73
2021/03/22 07:36:22;;;;;;;29.10;25.95;;;;;;;-0.24;100.00;100163.44;5036965;28;20036;-73
2021/03/22 07:39:06;;;;;;;28.65;21.02;;;;;;;-0.14;100.00;100161.53;5037087;28;20040;-73
2021/03/22 07:41:52;;;;;;;23.90;19.42;;;;;;;-0.09;100.00;100161.94;5037350;28;20033;-73
2021/03/22 07:44:44;;;;;;;28.70;22.42;;;;;;;-0.11;100.00;100158.63;5041124;28;20025;-73
2021/03/22 07:47:28;;;;;;;19.90;17.25;;;;;;;0.07;100.00;100149.97;5058061;28;20112;-73
2021/03/22 07:50:03;;;;;;;27.40;24.42;;;;;;;0.03;100.00;100154.69;5035830;28;20352;-73
2021/03/22 07:52:46;;;;;;;19.17;17.27;;;;;;;0.08;100.00;100155.03;5039440;28;20094;-73
2021/03/22 07:55:45;;;;;;;17.33;15.75;;;;;;;0.15;100.00;100160.47;5054443;28;20028;-73
2021/03/22 07:58:35;;;;;;;16.98;15.32;;;;;;;0.23;100.00;100155.31;5036364;28;20021;-73
2021/03/22 08:01:22;;;;;;;16.77;15.35;;;;;;;0.25;100.00;100155.97;5050543;28;20409;-73
2021/03/22 08:04:17;;;;;;;17.80;16.20;;;;;;;0.47;100.00;100164.28;5038593;28;20104;-73
2021/03/22 08:06:58;;;;;;;11.85;11.00;;;;;;;0.37;100.00;100152.13;5045362;28;20026;-73
2021/03/22 08:09:51;;;;;;;14.63;13.52;;;;;;;0.62;100.00;100142.66;5040208;28;20358;-73
2021/03/22 08:12:26;;;;;;;14.38;13.10;;;;;;;0.33;100.00;100142.13;5041486;28;20072;-73
2021/03/22 08:15:17;;;;;;;23.13;21.00;;;;;;;0.35;100.00;100137.59;5040621;28;20040;-73
2021/03/22 08:18:22;;;;;;;16.48;14.93;;;;;;;0.21;100.00;100134.56;5041573;28;20027;-73
2021/03/22 08:20:58;;;;;;;17.85;16.20;;;;;;;0.13;100.00;100137.13;5038504;28;20479;-73
2021/03/22 08:23:36;;;;;;;12.65;11.43;;;;;;;0.27;100.00;100138.34;5056966;28;20238;-73
2021/03/22 08:26:06;;;;;;;9.30;8.68;;;;;;;0.17;100.00;100137.63;5032268;28;20482;-73
2021/03/22 08:28:42;;;;;;;12.82;11.07;;;;;;;0.09;100.00;100141.03;5041647;28;20025;-73
2021/03/22 08:31:24;;;;;;;16.45;10.88;;;;;;;0.09;100.00;100146.25;5055334;28;20029;-73
2021/03/22 08:33:49;;;;;;;17.30;14.20;;;;;;;0.09;100.00;100148.00;5042228;28;20084;-73
2021/03/22 08:36:21;;;;;;;18.05;15.50;;;;;;;0.03;100.00;100149.47;5044439;28;20041;-73
2021/03/22 08:38:55;;;;;;;13.35;11.63;;;;;;;0.13;100.00;100147.56;5049416;28;20028;-73
2021/03/22 08:41:32;;;;;;;42.20;28.92;;;;;;;0.03;100.00;100146.84;5049067;28;20028;-73
2021/03/22 08:44:17;;;;;;;13.00;11.68;;;;;;;0.03;100.00;100144.25;5037438;28;20076;-73
2021/03/22 08:46:50;;;;;;;11.18;10.07;;;;;;;0.07;100.00;100137.72;5053740;28;20031;-73
2021/03/22 08:49:25;;;;;;;13.80;12.40;;;;;;;-0.01;100.00;100141.09;5052588;28;20065;-73
2021/03/22 08:51:54;;;;;;;12.82;10.98;;;;;;;0.24;100.00;100136.03;5052670;28;20016;-73
2021/03/22 08:54:34;;;;;;;13.00;11.63;;;;;;;0.05;100.00;100149.28;5043460;28;20047;-73
2021/03/22 08:57:23;;;;;;;14.70;13.23;;;;;;;0.09;100.00;100151.47;5047477;28;20117;-73
2021/03/22 08:59:49;;;;;;;7.63;7.03;;;;;;;0.15;100.00;100150.84;4697413;28;10000531;-73
2021/03/22 09:02:25;;;;;;;7.75;7.15;;;;;;;0.12;100.00;100145.09;5044179;28;20115;-73
2021/03/22 09:04:52;;;;;;;15.73;14.32;;;;;;;0.09;100.00;100141.03;5046571;28;20021;-73
2021/03/22 09:07:17;;;;;;;9.93;9.07;;;;;;;0.13;100.00;100138.91;5056748;28;20036;-73
2021/03/22 09:09:45;;;;;;;10.32;9.45;;;;;;;0.18;100.00;100131.44;5049505;28;20025;-73
2021/03/22 09:12:40;;;;;;;9.93;9.10;;;;;;;0.22;100.00;100130.97;5049553;28;20048;-73
2021/03/22 09:15:19;;;;;;;13.02;11.73;;;;;;;0.19;100.00;100131.28;5050619;28;20064;-73
2021/03/22 09:17:47;;;;;;;10.63;9.73;;;;;;;0.14;100.00;100132.72;5044560;28;20103;-73
2021/03/22 09:20:21;;;;;;;7.30;6.85;;;;;;;0.14;100.00;100133.53;5047322;28;20027;-73
2021/03/22 09:22:51;;;;;;;9.40;8.70;;;;;;;0.36;100.00;100134.81;5045967;28;20055;-73
2021/03/22 09:25:50;;;;;;;12.70;11.80;;;;;;;0.41;100.00;100137.78;5048333;28;20508;-73
2021/03/22 09:28:39;;;;;;;12.90;11.93;;;;;;;0.33;100.00;100139.53;5033982;28;20056;-73
2021/03/22 09:31:16;;;;;;;12.90;11.65;;;;;;;0.47;100.00;100136.34;5045688;28;20620;-73
2021/03/22 09:34:03;;;;;;;14.68;13.38;;;;;;;0.29;100.00;100146.84;5050063;28;20036;-73
2021/03/22 09:36:38;;;;;;;18.00;16.23;;;;;;;0.17;100.00;100143.66;5045542;28;20371;-73
2021/03/22 09:39:26;;;;;;;17.73;16.02;;;;;;;0.27;100.00;100137.53;5044520;28;20451;-73
2021/03/22 09:41:51;;;;;;;16.25;14.85;;;;;;;1.35;100.00;100141.28;5046632;28;20052;-74
2021/03/22 09:44:19;;;;;;;13.05;11.98;;;;;;;0.20;100.00;100147.78;5049088;28;20056;-73
2021/03/22 09:47:01;;;;;;;17.25;15.73;;;;;;;0.18;100.00;100142.72;5047086;28;20040;-73
2021/03/22 09:49:27;;;;;;;26.83;22.03;;;;;;;0.34;100.00;100135.97;5057323;28;20020;-74
2021/03/22 09:52:00;;;;;;;13.93;12.73;;;;;;;0.23;100.00;100132.59;5053850;28;20032;-74
2021/03/22 09:54:38;;;;;;;11.85;10.80;;;;;;;0.19;100.00;100126.06;5043690;28;20027;-73
2021/03/22 09:57:28;;;;;;;15.27;13.90;;;;;;;0.25;100.00;100135.09;5047342;28;20016;-73
2021/03/22 10:00:02;;;;;;;9.25;8.48;;;;;;;0.55;100.00;100140.81;5048350;28;20064;-73
2021/03/22 10:02:28;;;;;;;8.05;7.53;;;;;;;0.57;100.00;100133.63;5056007;28;20029;-73
2021/03/22 10:05:32;;;;;;;10.40;9.30;;;;;;;0.31;100.00;100131.03;5065310;28;20032;-73
2021/03/22 10:08:15;;;;;;;9.07;8.18;;;;;;;0.91;100.00;100139.69;5049114;28;20037;-73
2021/03/22 10:10:49;;;;;;;7.40;6.90;;;;;;;0.38;100.00;100139.91;5064258;28;20184;-73
2021/03/22 10:13:25;;;;;;;10.55;9.65;;;;;;;0.37;100.00;100135.66;5036816;28;20035;-73
2021/03/22 10:15:55;;;;;;;10.63;9.82;;;;;;;0.47;100.00;100141.59;5038699;28;20036;-72
2021/03/22 10:18:50;;;;;;;9.35;8.68;;;;;;;0.49;100.00;100150.09;5043659;28;20027;-72
2021/03/22 10:21:34;;;;;;;11.30;10.32;;;;;;;0.46;100.00;100145.19;5061948;28;20028;-73
2021/03/22 10:24:02;;;;;;;12.20;11.20;;;;;;;0.56;100.00;100150.28;5045575;28;20047;-72
2021/03/22 10:26:40;;;;;;;12.32;11.32;;;;;;;0.56;100.00;100153.72;5046104;28;20108;-73
2021/03/22 10:29:21;;;;;;;8.80;8.20;;;;;;;0.60;100.00;100149.00;5046148;28;20095;-73
2021/03/22 10:32:22;;;;;;;8.55;7.85;;;;;;;0.60;100.00;100149.81;5044669;28;20505;-74
2021/03/22 10:35:01;;;;;;;9.57;8.77;;;;;;;0.56;100.00;100142.44;5052774;28;20029;-73
2021/03/22 10:37:33;;;;;;;23.15;20.83;;;;;;;0.69;100.00;100135.00;5042562;28;20026;-73
2021/03/22 10:40:04;;;;;;;9.82;9.02;;;;;;;0.73;100.00;100132.88;5054487;28;20040;-73
2021/03/22 10:42:39;;;;;;;16.42;14.73;;;;;;;0.82;100.00;100137.22;5044484;28;20056;-73
2021/03/22 10:45:34;;;;;;;17.27;15.57;;;;;;;0.93;100.00;100136.09;5046865;28;20025;-72
2021/03/22 10:48:18;;;;;;;12.45;11.35;;;;;;;0.86;100.00;100130.69;5045071;28;20105;-73
2021/03/22 10:50:43;;;;;;;16.90;15.07;;;;;;;0.89;100.00;100128.56;5054194;28;21568;-73
2021/03/22 10:53:14;;;;;;;11.77;10.77;;;;;;;0.81;100.00;100128.50;5044950;28;20112;-73
2021/03/22 10:55:42;;;;;;;11.73;10.65;;;;;;;0.71;100.00;100122.59;5063003;28;20152;-73
2021/03/22 10:58:14;;;;;;;15.52;13.98;;;;;;;0.74;100.00;100124.09;5040889;28;20032;-75
2021/03/22 11:00:44;;;;;;;;;;;;;;;0.67;100.00;100119.47;5042059;28;20028;-73
2021/03/22 11:03:17;;;;;;;14.60;13.10;;;;;;;0.75;100.00;100118.69;5047838;28;19920;-73
2021/03/22 11:05:44;;;;;;;17.42;12.55;;;;;;;0.75;100.00;100123.09;5057230;28;20070;-73
2021/03/22 11:08:24;;;;;;;12.63;11.43;;;;;;;0.80;100.00;100116.44;5049254;28;20063;-73
2021/03/22 11:10:56;;;;;;;11.75;10.65;;;;;;;0.75;100.00;100113.47;5057398;28;20028;-73
2021/03/22 11:13:27;;;;;;;10.70;9.70;;;;;;;0.68;100.00;100112.47;5048020;28;20033;-73
2021/03/22 11:15:52;;;;;;;12.85;10.93;;;;;;;0.58;100.00;100115.19;5052200;28;20036;-72
2021/03/22 11:18:19;;;;;;;12.00;10.80;;;;;;;0.70;100.00;100118.34;5058098;28;20027;-73
2021/03/22 11:20:48;;;;;;;22.00;15.18;;;;;;;0.71;100.00;100114.75;5037560;28;20452;-73
2021/03/22 11:23:15;;;;;;;11.73;10.55;;;;;;;0.74;100.00;100108.41;5044839;28;20033;-72
2021/03/22 11:25:42;;;;;;;9.80;8.90;;;;;;;0.77;100.00;100114.13;5045537;28;20033;-73
2021/03/22 11:28:16;;;;;;;11.70;10.75;;;;;;;0.64;100.00;100109.34;5063251;28;20063;-73
2021/03/22 11:30:58;;;;;;;14.57;13.25;;;;;;;0.63;100.00;100117.31;5049224;28;20119;-72
2021/03/22 11:33:25;;;;;;;11.13;10.13;;;;;;;0.72;100.00;100126.03;5050949;28;20028;-72
2021/03/22 11:36:14;;;;;;;10.63;9.63;;;;;;;0.59;100.00;100131.69;5045926;28;20487;-73
2021/03/22 11:38:52;;;;;;;11.68;10.57;;;;;;;0.63;100.00;100141.66;5039899;28;20470;-75